sensor_id;sensor_type;location;lat;lon;timestamp;P1;durP1;ratioP1;P2;durP2;ratioP2
68475;SDS011;55464;48.266;14.188;2023-02-15T16:52:22;79.45;;;27.00;;
68475;SDS011;55464;48.266;14.188;2023-02-15T16:54:50;81.38;;;26.30;;
68475;SDS011;55464;48.266;14.188;2023-02-15T16:57:40;79.25;;;26.65;;
68475;SDS011;55464;48.266;14.188;2023-02-15T17:00:17;82.60;;;26.80;;
68475;SDS011;55464;48.266;14.188;2023-02-15T17:02:58;84.45;;;29.45;;
68475;SDS011;55464;48.266;14.188;2023-02-15T17:05:30;75.63;;;27.27;;
68475;SDS011;55464;48.266;14.188;2023-02-15T17:13:25;75.82;;;26.08;;
68475;SDS011;55464;48.266;14.188;2023-02-15T17:18:23;82.47;;;27.25;;
68475;SDS011;55464;48.266;14.188;2023-02-15T17:20:51;72.50;;;25.33;;
68475;SDS011;55464;48.266;14.188;2023-02-15T17:25:54;80.60;;;26.95;;
68475;SDS011;55464;48.266;14.188;2023-02-15T17:28:22;74.47;;;27.45;;
68475;SDS011;55464;48.266;14.188;2023-02-15T17:30:50;82.30;;;27.17;;
68475;SDS011;55464;48.266;14.188;2023-02-15T17:36:11;77.15;;;27.15;;
68475;SDS011;55464;48.266;14.188;2023-02-15T17:38:42;86.60;;;28.05;;
68475;SDS011;55464;48.266;14.188;2023-02-15T17:41:42;81.88;;;27.10;;
68475;SDS011;55464;48.266;14.188;2023-02-15T17:44:09;81.43;;;27.58;;
68475;SDS011;55464;48.266;14.188;2023-02-15T17:46:39;78.20;;;27.40;;
68475;SDS011;55464;48.266;14.188;2023-02-15T17:49:05;81.55;;;27.40;;
68475;SDS011;55464;48.266;14.188;2023-02-15T17:51:31;82.32;;;27.88;;
68475;SDS011;55464;48.266;14.188;2023-02-15T17:54:00;80.70;;;28.95;;
68475;SDS011;55464;48.266;14.188;2023-02-15T17:56:47;87.75;;;29.73;;
68475;SDS011;55464;48.266;14.188;2023-02-15T17:59:13;87.53;;;28.00;;
68475;SDS011;55464;48.266;14.188;2023-02-15T18:01:42;93.30;;;30.02;;
68475;SDS011;55464;48.266;14.188;2023-02-15T18:04:30;81.93;;;27.83;;
68475;SDS011;55464;48.266;14.188;2023-02-15T18:07:16;87.20;;;30.27;;
68475;SDS011;55464;48.266;14.188;2023-02-15T18:10:03;92.95;;;28.05;;
68475;SDS011;55464;48.266;14.188;2023-02-15T18:12:57;90.57;;;26.35;;
68475;SDS011;55464;48.266;14.188;2023-02-15T18:15:22;83.47;;;27.83;;
68475;SDS011;55464;48.266;14.188;2023-02-15T18:17:48;84.47;;;26.38;;
68475;SDS011;55464;48.266;14.188;2023-02-15T18:20:21;77.25;;;26.35;;
68475;SDS011;55464;48.266;14.188;2023-02-15T18:22:52;85.30;;;28.73;;
68475;SDS011;55464;48.266;14.188;2023-02-15T18:25:19;89.88;;;28.52;;
68475;SDS011;55464;48.266;14.188;2023-02-15T18:27:46;86.13;;;30.55;;
68475;SDS011;55464;48.266;14.188;2023-02-15T18:30:16;84.90;;;29.10;;
68475;SDS011;55464;48.266;14.188;2023-02-15T18:32:47;73.78;;;27.38;;
68475;SDS011;55464;48.266;14.188;2023-02-15T18:35:16;88.45;;;29.17;;
68475;SDS011;55464;48.266;14.188;2023-02-15T18:37:44;87.57;;;28.63;;
68475;SDS011;55464;48.266;14.188;2023-02-15T18:40:17;85.50;;;27.40;;
68475;SDS011;55464;48.266;14.188;2023-02-15T18:42:45;87.28;;;28.70;;
68475;SDS011;55464;48.266;14.188;2023-02-15T18:45:17;94.78;;;28.25;;
68475;SDS011;55464;48.266;14.188;2023-02-15T18:47:52;97.00;;;30.02;;
68475;SDS011;55464;48.266;14.188;2023-02-15T18:50:20;90.45;;;27.25;;
68475;SDS011;55464;48.266;14.188;2023-02-15T18:52:46;90.20;;;29.25;;
68475;SDS011;55464;48.266;14.188;2023-02-15T18:55:18;81.72;;;28.05;;
68475;SDS011;55464;48.266;14.188;2023-02-15T18:57:46;85.30;;;26.23;;
68475;SDS011;55464;48.266;14.188;2023-02-15T19:02:46;92.15;;;28.58;;
68475;SDS011;55464;48.266;14.188;2023-02-15T19:05:12;94.53;;;30.42;;
68475;SDS011;55464;48.266;14.188;2023-02-15T19:07:40;82.38;;;27.73;;
68475;SDS011;55464;48.266;14.188;2023-02-15T19:10:07;90.40;;;29.55;;
68475;SDS011;55464;48.266;14.188;2023-02-15T19:12:39;95.70;;;33.00;;
68475;SDS011;55464;48.266;14.188;2023-02-15T19:15:05;88.55;;;28.52;;
68475;SDS011;55464;48.266;14.188;2023-02-15T19:17:32;90.80;;;28.15;;
68475;SDS011;55464;48.266;14.188;2023-02-15T19:19:57;88.75;;;29.00;;
68475;SDS011;55464;48.266;14.188;2023-02-15T19:22:28;82.68;;;26.88;;
68475;SDS011;55464;48.266;14.188;2023-02-15T19:24:55;83.13;;;27.33;;
68475;SDS011;55464;48.266;14.188;2023-02-15T19:27:30;80.40;;;26.58;;
68475;SDS011;55464;48.266;14.188;2023-02-15T19:29:58;84.50;;;26.70;;
68475;SDS011;55464;48.266;14.188;2023-02-15T19:32:27;87.03;;;27.60;;
68475;SDS011;55464;48.266;14.188;2023-02-15T19:34:54;75.30;;;27.20;;
68475;SDS011;55464;48.266;14.188;2023-02-15T19:37:33;85.78;;;27.25;;
68475;SDS011;55464;48.266;14.188;2023-02-15T19:40:04;101.15;;;23.30;;
68475;SDS011;55464;48.266;14.188;2023-02-15T19:42:31;98.32;;;29.65;;
68475;SDS011;55464;48.266;14.188;2023-02-15T19:44:58;84.00;;;26.90;;
68475;SDS011;55464;48.266;14.188;2023-02-15T19:47:26;82.55;;;28.42;;
68475;SDS011;55464;48.266;14.188;2023-02-15T19:49:52;74.03;;;24.10;;
68475;SDS011;55464;48.266;14.188;2023-02-15T19:52:23;75.22;;;24.40;;
68475;SDS011;55464;48.266;14.188;2023-02-15T19:54:49;73.45;;;25.48;;
68475;SDS011;55464;48.266;14.188;2023-02-15T19:57:18;82.75;;;26.55;;
68475;SDS011;55464;48.266;14.188;2023-02-15T19:59:44;83.18;;;27.27;;
68475;SDS011;55464;48.266;14.188;2023-02-15T20:02:13;70.40;;;28.13;;
68475;SDS011;55464;48.266;14.188;2023-02-15T20:04:39;94.15;;;27.00;;
68475;SDS011;55464;48.266;14.188;2023-02-15T20:07:06;87.28;;;26.70;;
68475;SDS011;55464;48.266;14.188;2023-02-15T20:09:54;77.18;;;24.48;;
68475;SDS011;55464;48.266;14.188;2023-02-15T20:12:21;90.20;;;24.38;;
68475;SDS011;55464;48.266;14.188;2023-02-15T20:14:49;83.43;;;25.27;;
68475;SDS011;55464;48.266;14.188;2023-02-15T20:17:14;81.93;;;24.88;;
68475;SDS011;55464;48.266;14.188;2023-02-15T20:19:40;106.80;;;25.15;;
68475;SDS011;55464;48.266;14.188;2023-02-15T20:22:09;87.65;;;27.38;;
68475;SDS011;55464;48.266;14.188;2023-02-15T20:24:50;88.97;;;23.38;;
68475;SDS011;55464;48.266;14.188;2023-02-15T20:27:19;80.78;;;27.42;;
68475;SDS011;55464;48.266;14.188;2023-02-15T20:29:45;86.00;;;25.85;;
68475;SDS011;55464;48.266;14.188;2023-02-15T20:32:11;95.60;;;25.25;;
68475;SDS011;55464;48.266;14.188;2023-02-15T20:34:37;71.38;;;25.52;;
68475;SDS011;55464;48.266;14.188;2023-02-15T20:37:03;82.97;;;23.95;;
68475;SDS011;55464;48.266;14.188;2023-02-15T20:39:29;70.43;;;24.50;;
68475;SDS011;55464;48.266;14.188;2023-02-15T20:41:56;88.00;;;23.08;;
68475;SDS011;55464;48.266;14.188;2023-02-15T20:44:26;65.20;;;21.52;;
68475;SDS011;55464;48.266;14.188;2023-02-15T20:46:54;74.53;;;23.83;;
68475;SDS011;55464;48.266;14.188;2023-02-15T20:49:22;75.50;;;22.98;;
68475;SDS011;55464;48.266;14.188;2023-02-15T20:51:50;81.95;;;22.90;;
68475;SDS011;55464;48.266;14.188;2023-02-15T20:54:17;69.53;;;22.05;;
68475;SDS011;55464;48.266;14.188;2023-02-15T20:56:45;97.27;;;23.13;;
68475;SDS011;55464;48.266;14.188;2023-02-15T20:59:19;89.20;;;23.10;;
68475;SDS011;55464;48.266;14.188;2023-02-15T21:01:50;112.75;;;25.60;;
68475;SDS011;55464;48.266;14.188;2023-02-15T21:04:38;83.43;;;23.52;;
68475;SDS011;55464;48.266;14.188;2023-02-15T21:07:04;77.30;;;22.73;;
68475;SDS011;55464;48.266;14.188;2023-02-15T21:09:30;90.88;;;25.50;;
68475;SDS011;55464;48.266;14.188;2023-02-15T21:11:56;108.88;;;23.52;;
68475;SDS011;55464;48.266;14.188;2023-02-15T21:14:24;109.18;;;24.80;;
68475;SDS011;55464;48.266;14.188;2023-02-15T21:16:52;84.35;;;26.73;;
68475;SDS011;55464;48.266;14.188;2023-02-15T21:19:21;131.95;;;25.17;;
68475;SDS011;55464;48.266;14.188;2023-02-15T21:21:49;74.63;;;25.35;;
68475;SDS011;55464;48.266;14.188;2023-02-15T21:24:23;81.03;;;24.52;;
68475;SDS011;55464;48.266;14.188;2023-02-15T21:26:51;80.10;;;25.75;;
68475;SDS011;55464;48.266;14.188;2023-02-15T21:29:19;82.47;;;23.75;;
68475;SDS011;55464;48.266;14.188;2023-02-15T21:31:46;82.57;;;26.55;;
68475;SDS011;55464;48.266;14.188;2023-02-15T21:34:13;88.32;;;23.10;;
68475;SDS011;55464;48.266;14.188;2023-02-15T21:36:40;68.00;;;22.17;;
68475;SDS011;55464;48.266;14.188;2023-02-15T21:39:11;144.60;;;22.67;;
68475;SDS011;55464;48.266;14.188;2023-02-15T21:41:42;137.70;;;22.88;;
68475;SDS011;55464;48.266;14.188;2023-02-15T21:44:28;83.72;;;22.50;;
68475;SDS011;55464;48.266;14.188;2023-02-15T21:47:23;121.60;;;22.05;;
68475;SDS011;55464;48.266;14.188;2023-02-15T21:50:21;76.22;;;22.08;;
68475;SDS011;55464;48.266;14.188;2023-02-15T21:53:08;95.30;;;21.60;;
68475;SDS011;55464;48.266;14.188;2023-02-15T21:55:36;76.80;;;20.23;;
68475;SDS011;55464;48.266;14.188;2023-02-15T21:58:02;79.38;;;20.73;;
68475;SDS011;55464;48.266;14.188;2023-02-15T22:00:28;70.05;;;22.08;;
68475;SDS011;55464;48.266;14.188;2023-02-15T22:02:55;75.40;;;21.67;;
68475;SDS011;55464;48.266;14.188;2023-02-15T22:05:24;97.50;;;21.27;;
68475;SDS011;55464;48.266;14.188;2023-02-15T22:07:53;82.82;;;22.92;;
68475;SDS011;55464;48.266;14.188;2023-02-15T22:10:19;73.97;;;22.52;;
68475;SDS011;55464;48.266;14.188;2023-02-15T22:12:44;114.40;;;22.75;;
68475;SDS011;55464;48.266;14.188;2023-02-15T22:15:17;91.50;;;24.50;;
68475;SDS011;55464;48.266;14.188;2023-02-15T22:17:44;92.45;;;22.00;;
68475;SDS011;55464;48.266;14.188;2023-02-15T22:20:12;91.47;;;22.02;;
68475;SDS011;55464;48.266;14.188;2023-02-15T22:22:39;76.38;;;23.20;;
68475;SDS011;55464;48.266;14.188;2023-02-15T22:25:05;95.88;;;21.23;;
68475;SDS011;55464;48.266;14.188;2023-02-15T22:27:33;70.18;;;19.70;;
68475;SDS011;55464;48.266;14.188;2023-02-15T22:30:03;82.55;;;18.02;;
68475;SDS011;55464;48.266;14.188;2023-02-15T22:32:38;101.82;;;17.70;;
68475;SDS011;55464;48.266;14.188;2023-02-15T22:35:05;61.20;;;18.95;;
68475;SDS011;55464;48.266;14.188;2023-02-15T22:37:35;73.70;;;19.08;;
68475;SDS011;55464;48.266;14.188;2023-02-15T22:40:01;54.83;;;19.10;;
68475;SDS011;55464;48.266;14.188;2023-02-15T22:42:27;85.63;;;18.58;;
68475;SDS011;55464;48.266;14.188;2023-02-15T22:44:53;60.85;;;18.83;;
68475;SDS011;55464;48.266;14.188;2023-02-15T22:47:25;72.13;;;17.55;;
68475;SDS011;55464;48.266;14.188;2023-02-15T22:49:53;53.95;;;17.38;;
68475;SDS011;55464;48.266;14.188;2023-02-15T22:52:19;57.90;;;18.20;;
68475;SDS011;55464;48.266;14.188;2023-02-15T22:54:44;72.25;;;18.65;;
68475;SDS011;55464;48.266;14.188;2023-02-15T22:57:15;46.20;;;15.98;;
68475;SDS011;55464;48.266;14.188;2023-02-15T22:59:55;92.80;;;18.48;;
68475;SDS011;55464;48.266;14.188;2023-02-15T23:02:21;64.88;;;17.80;;
68475;SDS011;55464;48.266;14.188;2023-02-15T23:04:47;48.60;;;17.83;;
68475;SDS011;55464;48.266;14.188;2023-02-15T23:07:13;41.45;;;17.10;;
68475;SDS011;55464;48.266;14.188;2023-02-15T23:09:41;50.55;;;16.40;;
68475;SDS011;55464;48.266;14.188;2023-02-15T23:12:23;81.38;;;16.33;;
68475;SDS011;55464;48.266;14.188;2023-02-15T23:14:53;61.40;;;17.00;;
68475;SDS011;55464;48.266;14.188;2023-02-15T23:17:19;58.33;;;18.73;;
68475;SDS011;55464;48.266;14.188;2023-02-15T23:19:45;61.80;;;17.85;;
68475;SDS011;55464;48.266;14.188;2023-02-15T23:22:12;70.43;;;16.83;;
68475;SDS011;55464;48.266;14.188;2023-02-15T23:24:39;54.70;;;15.73;;
68475;SDS011;55464;48.266;14.188;2023-02-15T23:27:05;54.22;;;17.15;;
68475;SDS011;55464;48.266;14.188;2023-02-15T23:29:56;44.67;;;17.38;;
68475;SDS011;55464;48.266;14.188;2023-02-15T23:32:21;63.85;;;16.80;;
68475;SDS011;55464;48.266;14.188;2023-02-15T23:34:47;51.45;;;18.02;;
68475;SDS011;55464;48.266;14.188;2023-02-15T23:37:13;47.15;;;17.30;;
68475;SDS011;55464;48.266;14.188;2023-02-15T23:39:39;61.60;;;17.35;;
68475;SDS011;55464;48.266;14.188;2023-02-15T23:42:25;65.88;;;17.67;;
68475;SDS011;55464;48.266;14.188;2023-02-15T23:44:53;48.72;;;17.23;;
68475;SDS011;55464;48.266;14.188;2023-02-15T23:47:26;80.50;;;17.00;;
68475;SDS011;55464;48.266;14.188;2023-02-15T23:50:19;50.55;;;15.35;;
68475;SDS011;55464;48.266;14.188;2023-02-15T23:52:52;52.83;;;16.65;;
68475;SDS011;55464;48.266;14.188;2023-02-15T23:55:19;52.92;;;17.02;;
68475;SDS011;55464;48.266;14.188;2023-02-15T23:57:45;46.50;;;17.80;;
